sensor_id;sensor_type;location;lat;lon;timestamp;P1;durP1;ratioP1;P2;durP2;ratioP2
22660;SDS011;11497;52.222;21.246;2023-02-01T00:00:41;18.60;;;11.25;;
22660;SDS011;11497;52.222;21.246;2023-02-01T00:03:27;16.13;;;10.02;;
22660;SDS011;11497;52.222;21.246;2023-02-01T00:05:58;18.92;;;9.23;;
22660;SDS011;11497;52.222;21.246;2023-02-01T00:08:27;16.17;;;10.00;;
22660;SDS011;11497;52.222;21.246;2023-02-01T00:11:05;16.08;;;9.90;;
22660;SDS011;11497;52.222;21.246;2023-02-01T00:13:35;19.27;;;10.40;;
22660;SDS011;11497;52.222;21.246;2023-02-01T00:16:06;19.38;;;9.65;;
22660;SDS011;11497;52.222;21.246;2023-02-01T00:18:34;14.88;;;9.23;;
22660;SDS011;11497;52.222;21.246;2023-02-01T00:21:02;17.88;;;9.98;;
22660;SDS011;11497;52.222;21.246;2023-02-01T00:23:34;16.38;;;9.20;;
22660;SDS011;11497;52.222;21.246;2023-02-01T00:26:03;16.48;;;8.93;;
22660;SDS011;11497;52.222;21.246;2023-02-01T00:28:32;18.85;;;9.43;;
22660;SDS011;11497;52.222;21.246;2023-02-01T00:31:00;18.30;;;9.32;;
22660;SDS011;11497;52.222;21.246;2023-02-01T00:33:30;15.90;;;9.73;;
22660;SDS011;11497;52.222;21.246;2023-02-01T00:35:58;13.18;;;8.77;;
22660;SDS011;11497;52.222;21.246;2023-02-01T00:38:31;16.07;;;9.33;;
22660;SDS011;11497;52.222;21.246;2023-02-01T00:41:06;18.42;;;9.60;;
22660;SDS011;11497;52.222;21.246;2023-02-01T00:43:40;15.70;;;9.20;;
22660;SDS011;11497;52.222;21.246;2023-02-01T00:46:08;15.65;;;8.77;;
22660;SDS011;11497;52.222;21.246;2023-02-01T00:48:37;11.55;;;8.07;;
22660;SDS011;11497;52.222;21.246;2023-02-01T00:51:06;15.02;;;7.75;;
22660;SDS011;11497;52.222;21.246;2023-02-01T00:53:36;12.23;;;7.32;;
22660;SDS011;11497;52.222;21.246;2023-02-01T00:56:04;15.05;;;7.53;;
22660;SDS011;11497;52.222;21.246;2023-02-01T00:58:32;9.50;;;6.57;;
22660;SDS011;11497;52.222;21.246;2023-02-01T01:01:09;12.18;;;6.22;;
22660;SDS011;11497;52.222;21.246;2023-02-01T01:03:41;9.85;;;5.93;;
22660;SDS011;11497;52.222;21.246;2023-02-01T01:06:13;9.00;;;5.30;;
22660;SDS011;11497;52.222;21.246;2023-02-01T01:08:42;8.32;;;5.38;;
22660;SDS011;11497;52.222;21.246;2023-02-01T01:11:15;9.73;;;4.53;;
22660;SDS011;11497;52.222;21.246;2023-02-01T01:13:46;11.90;;;5.30;;
22660;SDS011;11497;52.222;21.246;2023-02-01T01:16:16;10.40;;;4.80;;
22660;SDS011;11497;52.222;21.246;2023-02-01T01:18:44;11.88;;;4.03;;
22660;SDS011;11497;52.222;21.246;2023-02-01T01:21:14;5.45;;;4.15;;
22660;SDS011;11497;52.222;21.246;2023-02-01T01:23:43;5.88;;;3.83;;
22660;SDS011;11497;52.222;21.246;2023-02-01T01:26:16;5.43;;;3.75;;
22660;SDS011;11497;52.222;21.246;2023-02-01T01:28:46;8.05;;;3.92;;
22660;SDS011;11497;52.222;21.246;2023-02-01T01:31:15;6.25;;;3.25;;
22660;SDS011;11497;52.222;21.246;2023-02-01T01:33:48;5.03;;;3.03;;
22660;SDS011;11497;52.222;21.246;2023-02-01T01:36:17;5.78;;;3.45;;
22660;SDS011;11497;52.222;21.246;2023-02-01T01:38:46;7.93;;;3.15;;
22660;SDS011;11497;52.222;21.246;2023-02-01T01:41:18;6.05;;;3.05;;
22660;SDS011;11497;52.222;21.246;2023-02-01T01:46:25;5.43;;;2.80;;
22660;SDS011;11497;52.222;21.246;2023-02-01T01:49:01;5.47;;;2.70;;
22660;SDS011;11497;52.222;21.246;2023-02-01T01:51:41;4.18;;;2.28;;
22660;SDS011;11497;52.222;21.246;2023-02-01T01:54:28;6.75;;;2.60;;
22660;SDS011;11497;52.222;21.246;2023-02-01T01:59:34;4.18;;;2.47;;
22660;SDS011;11497;52.222;21.246;2023-02-01T02:02:05;3.80;;;2.20;;
22660;SDS011;11497;52.222;21.246;2023-02-01T02:04:33;7.90;;;2.47;;
22660;SDS011;11497;52.222;21.246;2023-02-01T02:07:08;7.30;;;2.50;;
22660;SDS011;11497;52.222;21.246;2023-02-01T02:09:51;3.45;;;2.08;;
22660;SDS011;11497;52.222;21.246;2023-02-01T02:12:27;5.53;;;2.40;;
22660;SDS011;11497;52.222;21.246;2023-02-01T02:14:55;9.02;;;2.60;;
22660;SDS011;11497;52.222;21.246;2023-02-01T02:20:11;6.97;;;2.35;;
22660;SDS011;11497;52.222;21.246;2023-02-01T02:37:58;12.23;;;3.35;;
22660;SDS011;11497;52.222;21.246;2023-02-01T02:43:58;13.40;;;3.10;;
22660;SDS011;11497;52.222;21.246;2023-02-01T02:46:27;12.05;;;2.95;;
22660;SDS011;11497;52.222;21.246;2023-02-01T02:49:28;9.98;;;2.88;;
22660;SDS011;11497;52.222;21.246;2023-02-01T02:52:09;12.98;;;3.78;;
22660;SDS011;11497;52.222;21.246;2023-02-01T02:55:03;12.80;;;4.00;;
22660;SDS011;11497;52.222;21.246;2023-02-01T02:57:36;10.57;;;3.30;;
22660;SDS011;11497;52.222;21.246;2023-02-01T03:00:29;8.52;;;3.10;;
22660;SDS011;11497;52.222;21.246;2023-02-01T03:03:18;12.30;;;3.83;;
22660;SDS011;11497;52.222;21.246;2023-02-01T03:06:08;14.93;;;3.78;;
22660;SDS011;11497;52.222;21.246;2023-02-01T03:08:42;8.27;;;3.63;;
22660;SDS011;11497;52.222;21.246;2023-02-01T03:11:13;11.05;;;3.88;;
22660;SDS011;11497;52.222;21.246;2023-02-01T03:16:34;13.13;;;3.45;;
22660;SDS011;11497;52.222;21.246;2023-02-01T03:19:35;12.48;;;3.25;;
22660;SDS011;11497;52.222;21.246;2023-02-01T03:22:11;9.77;;;3.40;;
22660;SDS011;11497;52.222;21.246;2023-02-01T03:24:44;13.52;;;3.85;;
22660;SDS011;11497;52.222;21.246;2023-02-01T03:27:35;11.85;;;3.50;;
22660;SDS011;11497;52.222;21.246;2023-02-01T03:30:17;8.27;;;3.03;;
22660;SDS011;11497;52.222;21.246;2023-02-01T03:32:48;14.20;;;3.33;;
22660;SDS011;11497;52.222;21.246;2023-02-01T03:35:39;5.70;;;2.17;;
22660;SDS011;11497;52.222;21.246;2023-02-01T03:38:22;11.60;;;3.53;;
22660;SDS011;11497;52.222;21.246;2023-02-01T03:43:55;11.65;;;3.00;;
22660;SDS011;11497;52.222;21.246;2023-02-01T03:46:51;10.27;;;3.08;;
22660;SDS011;11497;52.222;21.246;2023-02-01T03:49:24;15.18;;;3.28;;
22660;SDS011;11497;52.222;21.246;2023-02-01T03:52:15;9.43;;;3.13;;
22660;SDS011;11497;52.222;21.246;2023-02-01T03:54:49;16.00;;;3.60;;
22660;SDS011;11497;52.222;21.246;2023-02-01T03:57:21;9.95;;;3.22;;
22660;SDS011;11497;52.222;21.246;2023-02-01T03:59:53;8.80;;;3.20;;
22660;SDS011;11497;52.222;21.246;2023-02-01T04:02:39;9.77;;;3.33;;
22660;SDS011;11497;52.222;21.246;2023-02-01T04:05:07;14.95;;;3.17;;
22660;SDS011;11497;52.222;21.246;2023-02-01T04:07:42;13.43;;;3.35;;
22660;SDS011;11497;52.222;21.246;2023-02-01T04:10:09;10.60;;;4.13;;
22660;SDS011;11497;52.222;21.246;2023-02-01T04:12:38;20.98;;;3.95;;
22660;SDS011;11497;52.222;21.246;2023-02-01T04:15:07;14.38;;;3.75;;
22660;SDS011;11497;52.222;21.246;2023-02-01T04:17:35;9.82;;;3.83;;
22660;SDS011;11497;52.222;21.246;2023-02-01T04:20:06;9.98;;;2.88;;
22660;SDS011;11497;52.222;21.246;2023-02-01T04:22:35;15.75;;;4.00;;
22660;SDS011;11497;52.222;21.246;2023-02-01T04:25:03;9.88;;;3.30;;
22660;SDS011;11497;52.222;21.246;2023-02-01T04:27:32;10.25;;;3.53;;
22660;SDS011;11497;52.222;21.246;2023-02-01T04:30:00;15.57;;;3.47;;
22660;SDS011;11497;52.222;21.246;2023-02-01T04:32:29;12.35;;;2.83;;
22660;SDS011;11497;52.222;21.246;2023-02-01T04:34:57;12.57;;;3.47;;
22660;SDS011;11497;52.222;21.246;2023-02-01T04:37:25;14.05;;;4.00;;
22660;SDS011;11497;52.222;21.246;2023-02-01T04:39:52;12.02;;;3.70;;
22660;SDS011;11497;52.222;21.246;2023-02-01T04:42:20;11.55;;;3.53;;
22660;SDS011;11497;52.222;21.246;2023-02-01T04:44:48;17.17;;;4.10;;
22660;SDS011;11497;52.222;21.246;2023-02-01T04:47:16;10.45;;;3.60;;
22660;SDS011;11497;52.222;21.246;2023-02-01T04:49:44;12.63;;;3.33;;
22660;SDS011;11497;52.222;21.246;2023-02-01T04:52:12;11.68;;;3.05;;
22660;SDS011;11497;52.222;21.246;2023-02-01T04:54:40;9.52;;;3.35;;
22660;SDS011;11497;52.222;21.246;2023-02-01T04:57:07;8.65;;;3.13;;
22660;SDS011;11497;52.222;21.246;2023-02-01T04:59:35;11.88;;;3.40;;
22660;SDS011;11497;52.222;21.246;2023-02-01T05:02:03;11.32;;;3.33;;
22660;SDS011;11497;52.222;21.246;2023-02-01T05:04:31;14.63;;;3.85;;
22660;SDS011;11497;52.222;21.246;2023-02-01T05:06:59;12.68;;;4.03;;
22660;SDS011;11497;52.222;21.246;2023-02-01T05:09:27;12.45;;;3.08;;
22660;SDS011;11497;52.222;21.246;2023-02-01T05:11:55;11.52;;;3.17;;
22660;SDS011;11497;52.222;21.246;2023-02-01T05:14:41;13.15;;;3.03;;
22660;SDS011;11497;52.222;21.246;2023-02-01T05:17:09;13.80;;;3.45;;
22660;SDS011;11497;52.222;21.246;2023-02-01T05:19:37;14.30;;;2.92;;
22660;SDS011;11497;52.222;21.246;2023-02-01T05:22:05;15.35;;;2.80;;
22660;SDS011;11497;52.222;21.246;2023-02-01T05:24:32;15.85;;;3.13;;
22660;SDS011;11497;52.222;21.246;2023-02-01T05:27:00;13.98;;;3.10;;
22660;SDS011;11497;52.222;21.246;2023-02-01T05:29:28;7.60;;;2.75;;
22660;SDS011;11497;52.222;21.246;2023-02-01T05:31:56;14.43;;;3.38;;
22660;SDS011;11497;52.222;21.246;2023-02-01T05:34:37;14.40;;;3.38;;
22660;SDS011;11497;52.222;21.246;2023-02-01T05:37:05;9.25;;;2.80;;
22660;SDS011;11497;52.222;21.246;2023-02-01T05:39:33;12.43;;;3.38;;
22660;SDS011;11497;52.222;21.246;2023-02-01T05:42:01;16.15;;;3.88;;
22660;SDS011;11497;52.222;21.246;2023-02-01T05:44:28;11.77;;;3.00;;
22660;SDS011;11497;52.222;21.246;2023-02-01T05:46:56;11.32;;;3.33;;
22660;SDS011;11497;52.222;21.246;2023-02-01T05:49:24;9.10;;;2.88;;
22660;SDS011;11497;52.222;21.246;2023-02-01T05:51:52;10.32;;;3.20;;
22660;SDS011;11497;52.222;21.246;2023-02-01T05:54:19;14.52;;;3.45;;
22660;SDS011;11497;52.222;21.246;2023-02-01T05:56:48;14.98;;;3.95;;
22660;SDS011;11497;52.222;21.246;2023-02-01T05:59:15;8.93;;;2.58;;
22660;SDS011;11497;52.222;21.246;2023-02-01T06:01:43;16.15;;;3.05;;
22660;SDS011;11497;52.222;21.246;2023-02-01T06:04:11;14.25;;;3.40;;
22660;SDS011;11497;52.222;21.246;2023-02-01T06:06:39;13.23;;;3.65;;
22660;SDS011;11497;52.222;21.246;2023-02-01T06:09:07;12.48;;;3.03;;
22660;SDS011;11497;52.222;21.246;2023-02-01T06:11:35;18.27;;;3.55;;
22660;SDS011;11497;52.222;21.246;2023-02-01T06:14:02;11.02;;;3.25;;
22660;SDS011;11497;52.222;21.246;2023-02-01T06:16:30;13.82;;;3.20;;
22660;SDS011;11497;52.222;21.246;2023-02-01T06:18:59;14.88;;;3.05;;
22660;SDS011;11497;52.222;21.246;2023-02-01T06:21:27;12.48;;;3.03;;
22660;SDS011;11497;52.222;21.246;2023-02-01T06:23:55;12.95;;;3.38;;
22660;SDS011;11497;52.222;21.246;2023-02-01T06:26:24;14.73;;;3.28;;
22660;SDS011;11497;52.222;21.246;2023-02-01T06:28:52;13.25;;;3.58;;
22660;SDS011;11497;52.222;21.246;2023-02-01T06:31:21;15.95;;;3.53;;
22660;SDS011;11497;52.222;21.246;2023-02-01T06:33:49;14.95;;;3.75;;
22660;SDS011;11497;52.222;21.246;2023-02-01T06:36:18;10.05;;;2.83;;
22660;SDS011;11497;52.222;21.246;2023-02-01T06:38:47;21.48;;;3.65;;
22660;SDS011;11497;52.222;21.246;2023-02-01T06:41:16;15.95;;;3.50;;
22660;SDS011;11497;52.222;21.246;2023-02-01T06:43:44;14.65;;;3.03;;
22660;SDS011;11497;52.222;21.246;2023-02-01T06:46:13;13.18;;;3.65;;
22660;SDS011;11497;52.222;21.246;2023-02-01T06:48:41;10.93;;;3.00;;
22660;SDS011;11497;52.222;21.246;2023-02-01T06:51:20;11.40;;;3.88;;
22660;SDS011;11497;52.222;21.246;2023-02-01T06:53:49;13.35;;;3.15;;
22660;SDS011;11497;52.222;21.246;2023-02-01T06:56:17;16.25;;;3.85;;
22660;SDS011;11497;52.222;21.246;2023-02-01T06:58:46;14.98;;;3.38;;
22660;SDS011;11497;52.222;21.246;2023-02-01T07:01:15;9.80;;;3.42;;
22660;SDS011;11497;52.222;21.246;2023-02-01T07:03:46;18.17;;;3.75;;
22660;SDS011;11497;52.222;21.246;2023-02-01T07:06:15;13.30;;;3.40;;
22660;SDS011;11497;52.222;21.246;2023-02-01T07:08:43;13.32;;;3.20;;
22660;SDS011;11497;52.222;21.246;2023-02-01T07:11:12;11.85;;;3.15;;
22660;SDS011;11497;52.222;21.246;2023-02-01T07:13:42;12.60;;;2.88;;
22660;SDS011;11497;52.222;21.246;2023-02-01T07:16:11;11.48;;;3.45;;
22660;SDS011;11497;52.222;21.246;2023-02-01T07:18:41;14.52;;;3.47;;
22660;SDS011;11497;52.222;21.246;2023-02-01T07:21:09;13.20;;;3.17;;
22660;SDS011;11497;52.222;21.246;2023-02-01T07:23:37;15.82;;;3.25;;
22660;SDS011;11497;52.222;21.246;2023-02-01T07:26:05;10.30;;;4.18;;
22660;SDS011;11497;52.222;21.246;2023-02-01T07:28:34;19.00;;;5.22;;
22660;SDS011;11497;52.222;21.246;2023-02-01T07:31:22;15.02;;;4.78;;
22660;SDS011;11497;52.222;21.246;2023-02-01T07:33:53;16.52;;;4.03;;
22660;SDS011;11497;52.222;21.246;2023-02-01T07:36:23;13.10;;;3.53;;
22660;SDS011;11497;52.222;21.246;2023-02-01T07:38:50;17.50;;;4.35;;
22660;SDS011;11497;52.222;21.246;2023-02-01T07:41:22;15.32;;;4.85;;
22660;SDS011;11497;52.222;21.246;2023-02-01T07:43:52;16.30;;;5.55;;
22660;SDS011;11497;52.222;21.246;2023-02-01T07:46:21;16.88;;;4.47;;
22660;SDS011;11497;52.222;21.246;2023-02-01T07:48:49;13.15;;;3.88;;
22660;SDS011;11497;52.222;21.246;2023-02-01T07:51:17;16.05;;;3.90;;
22660;SDS011;11497;52.222;21.246;2023-02-01T07:53:44;11.07;;;3.78;;
22660;SDS011;11497;52.222;21.246;2023-02-01T07:56:17;11.80;;;4.30;;
22660;SDS011;11497;52.222;21.246;2023-02-01T07:58:49;17.55;;;5.57;;
22660;SDS011;11497;52.222;21.246;2023-02-01T08:01:23;18.00;;;4.72;;
22660;SDS011;11497;52.222;21.246;2023-02-01T08:03:53;15.57;;;4.50;;
22660;SDS011;11497;52.222;21.246;2023-02-01T08:06:23;15.82;;;4.97;;
22660;SDS011;11497;52.222;21.246;2023-02-01T08:08:52;20.70;;;5.55;;
22660;SDS011;11497;52.222;21.246;2023-02-01T08:11:22;12.43;;;4.10;;
22660;SDS011;11497;52.222;21.246;2023-02-01T08:13:50;22.63;;;7.05;;
22660;SDS011;11497;52.222;21.246;2023-02-01T08:16:19;23.23;;;6.50;;
22660;SDS011;11497;52.222;21.246;2023-02-01T08:18:48;17.95;;;5.57;;
22660;SDS011;11497;52.222;21.246;2023-02-01T08:21:17;15.07;;;4.13;;
22660;SDS011;11497;52.222;21.246;2023-02-01T08:23:50;19.15;;;5.38;;
22660;SDS011;11497;52.222;21.246;2023-02-01T08:26:22;14.88;;;4.00;;
22660;SDS011;11497;52.222;21.246;2023-02-01T08:31:25;16.63;;;3.65;;
22660;SDS011;11497;52.222;21.246;2023-02-01T08:33:59;13.43;;;4.57;;
22660;SDS011;11497;52.222;21.246;2023-02-01T08:36:30;15.93;;;3.28;;
22660;SDS011;11497;52.222;21.246;2023-02-01T08:38:58;17.88;;;4.25;;
22660;SDS011;11497;52.222;21.246;2023-02-01T08:41:27;13.20;;;3.70;;
22660;SDS011;11497;52.222;21.246;2023-02-01T08:43:57;13.43;;;3.75;;
22660;SDS011;11497;52.222;21.246;2023-02-01T08:46:25;13.98;;;4.10;;
22660;SDS011;11497;52.222;21.246;2023-02-01T08:48:53;20.95;;;4.32;;
22660;SDS011;11497;52.222;21.246;2023-02-01T08:51:22;15.93;;;3.42;;
22660;SDS011;11497;52.222;21.246;2023-02-01T08:53:50;15.98;;;4.00;;
22660;SDS011;11497;52.222;21.246;2023-02-01T08:56:18;13.52;;;3.95;;
22660;SDS011;11497;52.222;21.246;2023-02-01T08:58:46;21.70;;;4.07;;
22660;SDS011;11497;52.222;21.246;2023-02-01T09:01:15;12.73;;;3.58;;
22660;SDS011;11497;52.222;21.246;2023-02-01T09:03:44;23.58;;;4.50;;
22660;SDS011;11497;52.222;21.246;2023-02-01T09:06:13;17.15;;;4.07;;
22660;SDS011;11497;52.222;21.246;2023-02-01T09:08:42;20.98;;;4.05;;
22660;SDS011;11497;52.222;21.246;2023-02-01T09:11:12;14.07;;;3.75;;
22660;SDS011;11497;52.222;21.246;2023-02-01T09:13:42;10.40;;;3.60;;
22660;SDS011;11497;52.222;21.246;2023-02-01T09:16:10;18.65;;;4.60;;
22660;SDS011;11497;52.222;21.246;2023-02-01T09:18:39;16.02;;;3.90;;
22660;SDS011;11497;52.222;21.246;2023-02-01T09:21:27;14.02;;;3.60;;
22660;SDS011;11497;52.222;21.246;2023-02-01T09:23:55;12.23;;;3.60;;
22660;SDS011;11497;52.222;21.246;2023-02-01T09:26:23;17.20;;;4.43;;
22660;SDS011;11497;52.222;21.246;2023-02-01T09:28:58;12.15;;;3.83;;
22660;SDS011;11497;52.222;21.246;2023-02-01T09:31:27;13.93;;;4.05;;
22660;SDS011;11497;52.222;21.246;2023-02-01T09:33:55;12.85;;;3.95;;
22660;SDS011;11497;52.222;21.246;2023-02-01T09:36:23;15.52;;;3.97;;
22660;SDS011;11497;52.222;21.246;2023-02-01T09:38:51;14.55;;;3.75;;
22660;SDS011;11497;52.222;21.246;2023-02-01T09:41:35;11.50;;;4.03;;
22660;SDS011;11497;52.222;21.246;2023-02-01T09:44:26;13.35;;;4.45;;
22660;SDS011;11497;52.222;21.246;2023-02-01T09:47:18;14.00;;;3.72;;
22660;SDS011;11497;52.222;21.246;2023-02-01T09:50:34;10.63;;;3.75;;
22660;SDS011;11497;52.222;21.246;2023-02-01T09:52:55;9.30;;;3.53;;
22660;SDS011;11497;52.222;21.246;2023-02-01T09:55:48;14.23;;;4.47;;
22660;SDS011;11497;52.222;21.246;2023-02-01T09:58:30;10.70;;;3.80;;
22660;SDS011;11497;52.222;21.246;2023-02-01T10:01:03;13.32;;;3.75;;
22660;SDS011;11497;52.222;21.246;2023-02-01T10:03:41;13.55;;;3.60;;
22660;SDS011;11497;52.222;21.246;2023-02-01T10:17:44;13.35;;;4.50;;
22660;SDS011;11497;52.222;21.246;2023-02-01T10:20:30;15.15;;;4.00;;
22660;SDS011;11497;52.222;21.246;2023-02-01T10:26:45;14.57;;;4.43;;
22660;SDS011;11497;52.222;21.246;2023-02-01T10:28:51;12.50;;;4.55;;
22660;SDS011;11497;52.222;21.246;2023-02-01T10:31:26;18.83;;;4.85;;
22660;SDS011;11497;52.222;21.246;2023-02-01T10:33:59;13.70;;;4.32;;
22660;SDS011;11497;52.222;21.246;2023-02-01T10:36:29;15.75;;;4.63;;
22660;SDS011;11497;52.222;21.246;2023-02-01T10:39:06;16.95;;;5.35;;
22660;SDS011;11497;52.222;21.246;2023-02-01T10:41:39;13.23;;;4.30;;
22660;SDS011;11497;52.222;21.246;2023-02-01T10:44:13;12.68;;;3.55;;
22660;SDS011;11497;52.222;21.246;2023-02-01T10:46:44;13.73;;;3.65;;
22660;SDS011;11497;52.222;21.246;2023-02-01T10:49:13;16.92;;;3.88;;
22660;SDS011;11497;52.222;21.246;2023-02-01T10:52:14;13.32;;;3.67;;
22660;SDS011;11497;52.222;21.246;2023-02-01T10:54:46;15.57;;;4.07;;
22660;SDS011;11497;52.222;21.246;2023-02-01T10:57:32;13.82;;;3.50;;
22660;SDS011;11497;52.222;21.246;2023-02-01T11:00:02;15.25;;;4.00;;
22660;SDS011;11497;52.222;21.246;2023-02-01T11:02:46;13.18;;;3.35;;
22660;SDS011;11497;52.222;21.246;2023-02-01T11:05:16;14.73;;;3.72;;
22660;SDS011;11497;52.222;21.246;2023-02-01T11:07:46;11.43;;;3.55;;
22660;SDS011;11497;52.222;21.246;2023-02-01T11:10:42;9.95;;;4.03;;
22660;SDS011;11497;52.222;21.246;2023-02-01T11:13:14;15.40;;;3.67;;
22660;SDS011;11497;52.222;21.246;2023-02-01T11:15:44;16.27;;;3.75;;
22660;SDS011;11497;52.222;21.246;2023-02-01T11:18:18;13.25;;;4.00;;
22660;SDS011;11497;52.222;21.246;2023-02-01T11:20:51;13.13;;;4.22;;
22660;SDS011;11497;52.222;21.246;2023-02-01T11:23:21;16.25;;;5.80;;
22660;SDS011;11497;52.222;21.246;2023-02-01T11:25:56;16.85;;;5.88;;
22660;SDS011;11497;52.222;21.246;2023-02-01T11:28:28;19.08;;;6.13;;
22660;SDS011;11497;52.222;21.246;2023-02-01T11:31:02;14.70;;;5.25;;
22660;SDS011;11497;52.222;21.246;2023-02-01T11:33:41;14.48;;;4.38;;
22660;SDS011;11497;52.222;21.246;2023-02-01T11:36:24;16.58;;;4.70;;
22660;SDS011;11497;52.222;21.246;2023-02-01T11:44:44;20.35;;;5.43;;
22660;SDS011;11497;52.222;21.246;2023-02-01T11:47:29;11.98;;;4.47;;
22660;SDS011;11497;52.222;21.246;2023-02-01T11:50:15;14.48;;;4.80;;
22660;SDS011;11497;52.222;21.246;2023-02-01T11:52:50;12.73;;;4.47;;
22660;SDS011;11497;52.222;21.246;2023-02-01T12:04:36;9.93;;;3.90;;
22660;SDS011;11497;52.222;21.246;2023-02-01T12:07:19;16.70;;;4.25;;
22660;SDS011;11497;52.222;21.246;2023-02-01T12:10:01;14.77;;;4.28;;
22660;SDS011;11497;52.222;21.246;2023-02-01T12:19:03;13.40;;;3.70;;
22660;SDS011;11497;52.222;21.246;2023-02-01T12:21:36;13.48;;;4.57;;
22660;SDS011;11497;52.222;21.246;2023-02-01T12:24:24;17.00;;;5.15;;
22660;SDS011;11497;52.222;21.246;2023-02-01T12:43:59;18.55;;;4.40;;
22660;SDS011;11497;52.222;21.246;2023-02-01T12:51:46;19.27;;;5.43;;
22660;SDS011;11497;52.222;21.246;2023-02-01T12:54:22;23.80;;;5.63;;
22660;SDS011;11497;52.222;21.246;2023-02-01T12:56:59;21.13;;;5.65;;
22660;SDS011;11497;52.222;21.246;2023-02-01T12:59:36;17.75;;;5.80;;
22660;SDS011;11497;52.222;21.246;2023-02-01T13:06:15;16.80;;;5.35;;
22660;SDS011;11497;52.222;21.246;2023-02-01T13:08:44;15.63;;;4.78;;
22660;SDS011;11497;52.222;21.246;2023-02-01T13:11:38;19.38;;;5.40;;
22660;SDS011;11497;52.222;21.246;2023-02-01T13:20:05;15.40;;;5.25;;
22660;SDS011;11497;52.222;21.246;2023-02-01T13:22:43;17.23;;;4.90;;
22660;SDS011;11497;52.222;21.246;2023-02-01T13:25:51;15.32;;;4.40;;
22660;SDS011;11497;52.222;21.246;2023-02-01T13:28:23;20.80;;;5.90;;
22660;SDS011;11497;52.222;21.246;2023-02-01T13:37:24;23.70;;;5.53;;
22660;SDS011;11497;52.222;21.246;2023-02-01T13:42:48;16.08;;;4.97;;
22660;SDS011;11497;52.222;21.246;2023-02-01T13:45:20;24.98;;;6.45;;
22660;SDS011;11497;52.222;21.246;2023-02-01T13:47:53;20.35;;;5.03;;
22660;SDS011;11497;52.222;21.246;2023-02-01T13:50:32;18.13;;;5.13;;
22660;SDS011;11497;52.222;21.246;2023-02-01T13:55:38;16.60;;;4.90;;
22660;SDS011;11497;52.222;21.246;2023-02-01T13:58:13;22.02;;;4.80;;
22660;SDS011;11497;52.222;21.246;2023-02-01T14:00:45;16.65;;;4.43;;
22660;SDS011;11497;52.222;21.246;2023-02-01T14:03:19;12.98;;;4.55;;
22660;SDS011;11497;52.222;21.246;2023-02-01T14:08:25;14.90;;;4.70;;
22660;SDS011;11497;52.222;21.246;2023-02-01T14:11:05;34.63;;;12.48;;
22660;SDS011;11497;52.222;21.246;2023-02-01T14:13:53;16.98;;;7.38;;
22660;SDS011;11497;52.222;21.246;2023-02-01T14:16:21;15.23;;;7.00;;
22660;SDS011;11497;52.222;21.246;2023-02-01T14:18:54;10.38;;;4.40;;
22660;SDS011;11497;52.222;21.246;2023-02-01T14:21:29;12.05;;;4.68;;
22660;SDS011;11497;52.222;21.246;2023-02-01T14:24:01;14.23;;;4.65;;
22660;SDS011;11497;52.222;21.246;2023-02-01T14:26:51;12.18;;;4.47;;
22660;SDS011;11497;52.222;21.246;2023-02-01T14:29:24;9.25;;;4.28;;
22660;SDS011;11497;52.222;21.246;2023-02-01T14:32:01;8.48;;;4.45;;
22660;SDS011;11497;52.222;21.246;2023-02-01T14:58:16;11.20;;;4.78;;
22660;SDS011;11497;52.222;21.246;2023-02-01T15:00:51;10.93;;;4.43;;
22660;SDS011;11497;52.222;21.246;2023-02-01T15:03:26;11.80;;;4.45;;
22660;SDS011;11497;52.222;21.246;2023-02-01T15:09:14;10.07;;;4.18;;
22660;SDS011;11497;52.222;21.246;2023-02-01T15:14:28;15.13;;;5.78;;
22660;SDS011;11497;52.222;21.246;2023-02-01T15:16:58;16.77;;;5.90;;
22660;SDS011;11497;52.222;21.246;2023-02-01T15:19:28;12.43;;;4.82;;
22660;SDS011;11497;52.222;21.246;2023-02-01T15:21:58;11.05;;;6.28;;
22660;SDS011;11497;52.222;21.246;2023-02-01T15:24:27;17.38;;;6.28;;
22660;SDS011;11497;52.222;21.246;2023-02-01T15:27:02;11.35;;;6.38;;
22660;SDS011;11497;52.222;21.246;2023-02-01T15:29:31;9.55;;;4.93;;
22660;SDS011;11497;52.222;21.246;2023-02-01T15:32:00;8.48;;;4.57;;
22660;SDS011;11497;52.222;21.246;2023-02-01T15:34:47;9.45;;;4.88;;
22660;SDS011;11497;52.222;21.246;2023-02-01T15:37:20;10.05;;;4.40;;
22660;SDS011;11497;52.222;21.246;2023-02-01T15:42:57;8.38;;;4.53;;
22660;SDS011;11497;52.222;21.246;2023-02-01T15:45:27;9.45;;;4.55;;
22660;SDS011;11497;52.222;21.246;2023-02-01T15:47:58;11.43;;;4.90;;
22660;SDS011;11497;52.222;21.246;2023-02-01T15:50:27;9.48;;;4.93;;
22660;SDS011;11497;52.222;21.246;2023-02-01T15:52:58;12.93;;;6.30;;
22660;SDS011;11497;52.222;21.246;2023-02-01T15:55:34;13.82;;;6.78;;
22660;SDS011;11497;52.222;21.246;2023-02-01T15:58:08;14.30;;;6.60;;
22660;SDS011;11497;52.222;21.246;2023-02-01T16:00:49;17.00;;;7.03;;
22660;SDS011;11497;52.222;21.246;2023-02-01T16:03:36;12.60;;;6.70;;
22660;SDS011;11497;52.222;21.246;2023-02-01T16:06:28;11.40;;;5.70;;
22660;SDS011;11497;52.222;21.246;2023-02-01T16:14:06;12.98;;;5.57;;
22660;SDS011;11497;52.222;21.246;2023-02-01T16:16:34;10.73;;;5.43;;
22660;SDS011;11497;52.222;21.246;2023-02-01T16:19:02;10.82;;;5.50;;
22660;SDS011;11497;52.222;21.246;2023-02-01T16:21:29;10.57;;;5.43;;
22660;SDS011;11497;52.222;21.246;2023-02-01T16:23:57;14.68;;;6.13;;
22660;SDS011;11497;52.222;21.246;2023-02-01T16:26:31;12.35;;;6.93;;
22660;SDS011;11497;52.222;21.246;2023-02-01T16:29:00;13.25;;;6.65;;
22660;SDS011;11497;52.222;21.246;2023-02-01T16:31:34;15.55;;;6.35;;
22660;SDS011;11497;52.222;21.246;2023-02-01T16:34:04;13.68;;;6.85;;
22660;SDS011;11497;52.222;21.246;2023-02-01T16:36:33;11.15;;;5.85;;
22660;SDS011;11497;52.222;21.246;2023-02-01T16:39:01;15.88;;;5.97;;
22660;SDS011;11497;52.222;21.246;2023-02-01T16:41:30;9.25;;;5.20;;
22660;SDS011;11497;52.222;21.246;2023-02-01T16:43:58;12.75;;;5.82;;
22660;SDS011;11497;52.222;21.246;2023-02-01T16:46:26;10.18;;;6.10;;
22660;SDS011;11497;52.222;21.246;2023-02-01T16:49:02;13.90;;;7.13;;
22660;SDS011;11497;52.222;21.246;2023-02-01T16:51:31;58.22;;;25.45;;
22660;SDS011;11497;52.222;21.246;2023-02-01T16:54:00;19.02;;;7.90;;
22660;SDS011;11497;52.222;21.246;2023-02-01T16:56:30;16.88;;;10.82;;
22660;SDS011;11497;52.222;21.246;2023-02-01T16:59:00;16.13;;;9.07;;
22660;SDS011;11497;52.222;21.246;2023-02-01T17:01:28;11.10;;;6.68;;
22660;SDS011;11497;52.222;21.246;2023-02-01T17:03:56;10.52;;;6.63;;
22660;SDS011;11497;52.222;21.246;2023-02-01T17:06:24;12.75;;;6.57;;
22660;SDS011;11497;52.222;21.246;2023-02-01T17:08:55;12.88;;;7.57;;
22660;SDS011;11497;52.222;21.246;2023-02-01T17:11:29;13.30;;;7.38;;
22660;SDS011;11497;52.222;21.246;2023-02-01T17:14:01;15.32;;;7.22;;
22660;SDS011;11497;52.222;21.246;2023-02-01T17:16:43;14.20;;;6.55;;
22660;SDS011;11497;52.222;21.246;2023-02-01T17:19:14;14.70;;;6.75;;
22660;SDS011;11497;52.222;21.246;2023-02-01T17:21:45;12.40;;;7.30;;
22660;SDS011;11497;52.222;21.246;2023-02-01T17:24:20;12.13;;;7.00;;
22660;SDS011;11497;52.222;21.246;2023-02-01T17:26:51;12.20;;;6.68;;
22660;SDS011;11497;52.222;21.246;2023-02-01T17:29:19;15.00;;;7.75;;
22660;SDS011;11497;52.222;21.246;2023-02-01T17:31:47;15.18;;;7.03;;